sensor_id;sensor_type;location;lat;lon;timestamp;P1;durP1;ratioP1;P2;durP2;ratioP2
10651;SDS011;5374;42.742;23.266;2022-08-01T04:59:48;6.10;;;4.60;;
10651;SDS011;5374;42.742;23.266;2022-08-01T05:02:42;5.57;;;4.57;;
10651;SDS011;5374;42.742;23.266;2022-08-01T05:05:29;7.23;;;3.60;;
10651;SDS011;5374;42.742;23.266;2022-08-01T05:08:17;7.43;;;3.37;;
10651;SDS011;5374;42.742;23.266;2022-08-01T05:11:04;3.60;;;3.30;;
10651;SDS011;5374;42.742;23.266;2022-08-01T05:13:51;6.57;;;4.20;;
10651;SDS011;5374;42.742;23.266;2022-08-01T05:16:40;6.60;;;3.70;;
10651;SDS011;5374;42.742;23.266;2022-08-01T05:19:27;4.93;;;3.53;;
10651;SDS011;5374;42.742;23.266;2022-08-01T05:22:14;3.28;;;2.72;;
10651;SDS011;5374;42.742;23.266;2022-08-01T05:25:02;5.28;;;2.95;;
10651;SDS011;5374;42.742;23.266;2022-08-01T05:27:50;3.50;;;3.00;;
10651;SDS011;5374;42.742;23.266;2022-08-01T05:30:38;3.97;;;3.33;;
10651;SDS011;5374;42.742;23.266;2022-08-01T05:33:27;4.55;;;3.25;;
10651;SDS011;5374;42.742;23.266;2022-08-01T05:36:14;3.17;;;2.88;;
10651;SDS011;5374;42.742;23.266;2022-08-01T05:39:02;5.35;;;3.10;;
10651;SDS011;5374;42.742;23.266;2022-08-01T05:41:49;5.57;;;3.20;;
10651;SDS011;5374;42.742;23.266;2022-08-01T05:44:36;3.47;;;2.90;;
10651;SDS011;5374;42.742;23.266;2022-08-01T05:47:23;6.05;;;3.08;;
10651;SDS011;5374;42.742;23.266;2022-08-01T05:50:12;6.03;;;3.15;;
10651;SDS011;5374;42.742;23.266;2022-08-01T05:52:59;3.65;;;2.83;;
10651;SDS011;5374;42.742;23.266;2022-08-01T05:55:46;5.15;;;2.90;;
10651;SDS011;5374;42.742;23.266;2022-08-01T05:58:33;4.07;;;2.85;;
10651;SDS011;5374;42.742;23.266;2022-08-01T06:01:21;5.65;;;3.28;;
10651;SDS011;5374;42.742;23.266;2022-08-01T06:04:08;4.45;;;3.60;;
10651;SDS011;5374;42.742;23.266;2022-08-01T06:06:56;4.55;;;3.15;;
10651;SDS011;5374;42.742;23.266;2022-08-01T06:09:43;3.80;;;2.40;;
10651;SDS011;5374;42.742;23.266;2022-08-01T06:12:38;4.67;;;3.13;;
10651;SDS011;5374;42.742;23.266;2022-08-01T06:15:28;6.00;;;2.50;;
10651;SDS011;5374;42.742;23.266;2022-08-01T06:18:15;2.57;;;2.20;;
10651;SDS011;5374;42.742;23.266;2022-08-01T06:21:02;2.10;;;2.00;;
10651;SDS011;5374;42.742;23.266;2022-08-01T06:23:51;3.00;;;2.30;;
10651;SDS011;5374;42.742;23.266;2022-08-01T06:26:38;6.13;;;2.40;;
10651;SDS011;5374;42.742;23.266;2022-08-01T06:29:25;2.30;;;1.90;;
10651;SDS011;5374;42.742;23.266;2022-08-01T06:32:12;2.77;;;2.10;;
10651;SDS011;5374;42.742;23.266;2022-08-01T06:34:59;2.33;;;2.17;;
10651;SDS011;5374;42.742;23.266;2022-08-01T06:37:47;2.87;;;2.30;;
10651;SDS011;5374;42.742;23.266;2022-08-01T06:40:35;4.40;;;2.70;;
10651;SDS011;5374;42.742;23.266;2022-08-01T06:43:23;2.57;;;2.37;;
10651;SDS011;5374;42.742;23.266;2022-08-01T06:46:10;3.60;;;2.40;;
10651;SDS011;5374;42.742;23.266;2022-08-01T06:48:58;4.33;;;2.90;;
10651;SDS011;5374;42.742;23.266;2022-08-01T06:51:45;3.53;;;2.60;;
10651;SDS011;5374;42.742;23.266;2022-08-01T06:54:32;4.10;;;2.10;;
10651;SDS011;5374;42.742;23.266;2022-08-01T06:57:21;2.67;;;2.20;;
10651;SDS011;5374;42.742;23.266;2022-08-01T07:00:09;3.17;;;2.63;;
10651;SDS011;5374;42.742;23.266;2022-08-01T07:02:58;2.17;;;2.00;;
10651;SDS011;5374;42.742;23.266;2022-08-01T07:05:45;2.90;;;2.60;;
10651;SDS011;5374;42.742;23.266;2022-08-01T07:08:33;3.63;;;2.33;;
10651;SDS011;5374;42.742;23.266;2022-08-01T07:11:20;4.60;;;2.30;;
10651;SDS011;5374;42.742;23.266;2022-08-01T07:14:10;2.10;;;1.90;;
10651;SDS011;5374;42.742;23.266;2022-08-01T07:16:57;2.50;;;2.20;;
10651;SDS011;5374;42.742;23.266;2022-08-01T07:19:44;3.83;;;2.07;;
10651;SDS011;5374;42.742;23.266;2022-08-01T07:22:31;2.43;;;2.10;;
10651;SDS011;5374;42.742;23.266;2022-08-01T07:25:18;2.50;;;2.30;;
10651;SDS011;5374;42.742;23.266;2022-08-01T07:28:05;3.13;;;2.10;;
10651;SDS011;5374;42.742;23.266;2022-08-01T07:30:54;3.67;;;2.20;;
10651;SDS011;5374;42.742;23.266;2022-08-01T07:33:41;2.30;;;2.00;;
10651;SDS011;5374;42.742;23.266;2022-08-01T07:36:28;3.17;;;2.13;;
10651;SDS011;5374;42.742;23.266;2022-08-01T07:39:15;3.63;;;2.13;;
10651;SDS011;5374;42.742;23.266;2022-08-01T07:42:03;2.37;;;2.17;;
10651;SDS011;5374;42.742;23.266;2022-08-01T07:44:50;2.53;;;2.20;;
10651;SDS011;5374;42.742;23.266;2022-08-01T07:47:40;2.90;;;2.30;;
10651;SDS011;5374;42.742;23.266;2022-08-01T07:50:27;2.53;;;2.33;;
10651;SDS011;5374;42.742;23.266;2022-08-01T07:53:15;3.30;;;2.50;;
10651;SDS011;5374;42.742;23.266;2022-08-01T07:56:02;2.80;;;2.47;;
10651;SDS011;5374;42.742;23.266;2022-08-01T07:58:51;4.13;;;2.63;;
10651;SDS011;5374;42.742;23.266;2022-08-01T08:01:38;2.90;;;2.60;;
10651;SDS011;5374;42.742;23.266;2022-08-01T08:04:27;4.20;;;2.57;;
10651;SDS011;5374;42.742;23.266;2022-08-01T08:07:14;3.70;;;2.43;;
10651;SDS011;5374;42.742;23.266;2022-08-01T08:10:02;3.27;;;2.60;;
10651;SDS011;5374;42.742;23.266;2022-08-01T08:12:50;2.27;;;2.07;;
10651;SDS011;5374;42.742;23.266;2022-08-01T08:15:37;2.97;;;2.27;;
10651;SDS011;5374;42.742;23.266;2022-08-01T08:18:25;2.83;;;2.43;;
10651;SDS011;5374;42.742;23.266;2022-08-01T08:21:13;3.40;;;2.47;;
10651;SDS011;5374;42.742;23.266;2022-08-01T08:24:00;3.27;;;2.50;;
10651;SDS011;5374;42.742;23.266;2022-08-01T08:27:05;2.47;;;2.27;;
10651;SDS011;5374;42.742;23.266;2022-08-01T08:29:53;2.83;;;2.23;;
10651;SDS011;5374;42.742;23.266;2022-08-01T08:32:40;2.83;;;2.57;;
10651;SDS011;5374;42.742;23.266;2022-08-01T08:35:27;4.47;;;2.37;;
10651;SDS011;5374;42.742;23.266;2022-08-01T08:38:16;3.67;;;2.50;;
10651;SDS011;5374;42.742;23.266;2022-08-01T08:41:03;2.43;;;2.23;;
10651;SDS011;5374;42.742;23.266;2022-08-01T08:43:51;5.20;;;2.63;;
10651;SDS011;5374;42.742;23.266;2022-08-01T08:46:40;3.07;;;2.77;;
10651;SDS011;5374;42.742;23.266;2022-08-01T08:49:29;3.70;;;2.53;;
10651;SDS011;5374;42.742;23.266;2022-08-01T08:52:17;3.43;;;2.53;;
10651;SDS011;5374;42.742;23.266;2022-08-01T08:55:08;3.23;;;2.50;;
10651;SDS011;5374;42.742;23.266;2022-08-01T08:57:56;3.87;;;2.40;;
10651;SDS011;5374;42.742;23.266;2022-08-01T09:00:51;4.33;;;2.33;;
10651;SDS011;5374;42.742;23.266;2022-08-01T09:03:40;2.40;;;2.20;;
10651;SDS011;5374;42.742;23.266;2022-08-01T09:06:27;3.40;;;2.30;;
10651;SDS011;5374;42.742;23.266;2022-08-01T09:09:15;2.40;;;2.20;;
10651;SDS011;5374;42.742;23.266;2022-08-01T09:12:04;6.73;;;2.30;;
10651;SDS011;5374;42.742;23.266;2022-08-01T09:14:52;2.53;;;2.30;;
10651;SDS011;5374;42.742;23.266;2022-08-01T09:17:40;3.40;;;2.20;;
10651;SDS011;5374;42.742;23.266;2022-08-01T09:20:27;3.77;;;2.10;;
10651;SDS011;5374;42.742;23.266;2022-08-01T09:26:18;2.87;;;2.13;;
10651;SDS011;5374;42.742;23.266;2022-08-01T09:29:17;4.20;;;2.20;;
10651;SDS011;5374;42.742;23.266;2022-08-01T09:32:06;3.00;;;2.70;;
10651;SDS011;5374;42.742;23.266;2022-08-01T09:34:53;3.27;;;2.23;;
10651;SDS011;5374;42.742;23.266;2022-08-01T09:37:40;3.53;;;2.43;;
10651;SDS011;5374;42.742;23.266;2022-08-01T09:43:31;2.47;;;2.27;;
10651;SDS011;5374;42.742;23.266;2022-08-01T09:46:19;2.50;;;2.30;;
10651;SDS011;5374;42.742;23.266;2022-08-01T09:49:07;5.33;;;2.33;;
10651;SDS011;5374;42.742;23.266;2022-08-01T09:51:54;4.63;;;2.53;;
10651;SDS011;5374;42.742;23.266;2022-08-01T09:54:42;3.97;;;3.10;;
10651;SDS011;5374;42.742;23.266;2022-08-01T09:57:30;3.83;;;3.40;;
10651;SDS011;5374;42.742;23.266;2022-08-01T10:00:18;3.67;;;3.37;;
10651;SDS011;5374;42.742;23.266;2022-08-01T10:03:20;5.80;;;5.30;;
10651;SDS011;5374;42.742;23.266;2022-08-01T10:06:18;4.27;;;3.87;;
10651;SDS011;5374;42.742;23.266;2022-08-01T10:09:07;4.67;;;2.60;;
10651;SDS011;5374;42.742;23.266;2022-08-01T10:11:54;2.73;;;2.20;;
10651;SDS011;5374;42.742;23.266;2022-08-01T10:14:42;2.70;;;2.50;;
10651;SDS011;5374;42.742;23.266;2022-08-01T10:17:30;2.83;;;2.10;;
10651;SDS011;5374;42.742;23.266;2022-08-01T10:20:22;2.23;;;2.03;;
10651;SDS011;5374;42.742;23.266;2022-08-01T10:23:11;3.77;;;2.27;;
10651;SDS011;5374;42.742;23.266;2022-08-01T10:25:59;2.23;;;2.03;;
10651;SDS011;5374;42.742;23.266;2022-08-01T10:28:48;7.50;;;2.30;;
10651;SDS011;5374;42.742;23.266;2022-08-01T10:31:38;2.50;;;1.90;;
10651;SDS011;5374;42.742;23.266;2022-08-01T10:34:25;3.27;;;2.03;;
10651;SDS011;5374;42.742;23.266;2022-08-01T10:37:15;2.23;;;2.03;;
10651;SDS011;5374;42.742;23.266;2022-08-01T10:40:04;3.17;;;2.40;;
10651;SDS011;5374;42.742;23.266;2022-08-01T10:42:53;4.43;;;2.37;;
10651;SDS011;5374;42.742;23.266;2022-08-01T10:45:42;2.97;;;2.60;;
10651;SDS011;5374;42.742;23.266;2022-08-01T10:48:31;3.00;;;2.10;;
10651;SDS011;5374;42.742;23.266;2022-08-01T10:51:28;3.33;;;2.50;;
10651;SDS011;5374;42.742;23.266;2022-08-01T10:54:17;2.60;;;2.40;;
10651;SDS011;5374;42.742;23.266;2022-08-01T10:57:04;2.50;;;2.30;;
10651;SDS011;5374;42.742;23.266;2022-08-01T10:59:52;2.67;;;2.47;;
10651;SDS011;5374;42.742;23.266;2022-08-01T11:02:39;3.03;;;2.77;;
10651;SDS011;5374;42.742;23.266;2022-08-01T11:05:30;3.33;;;2.50;;
10651;SDS011;5374;42.742;23.266;2022-08-01T11:08:20;3.97;;;2.43;;
10651;SDS011;5374;42.742;23.266;2022-08-01T11:11:10;3.20;;;2.40;;
10651;SDS011;5374;42.742;23.266;2022-08-01T11:14:01;2.47;;;2.10;;
10651;SDS011;5374;42.742;23.266;2022-08-01T11:16:52;4.83;;;2.40;;
10651;SDS011;5374;42.742;23.266;2022-08-01T11:26:17;3.13;;;2.50;;
10651;SDS011;5374;42.742;23.266;2022-08-01T11:29:15;2.40;;;2.20;;
10651;SDS011;5374;42.742;23.266;2022-08-01T11:35:12;3.10;;;2.80;;
10651;SDS011;5374;42.742;23.266;2022-08-01T11:41:14;2.70;;;2.50;;
10651;SDS011;5374;42.742;23.266;2022-08-01T11:44:05;2.30;;;2.10;;
10651;SDS011;5374;42.742;23.266;2022-08-01T11:49:52;3.33;;;2.30;;
10651;SDS011;5374;42.742;23.266;2022-08-01T11:52:43;2.50;;;2.30;;
10651;SDS011;5374;42.742;23.266;2022-08-01T11:55:31;2.80;;;2.30;;
10651;SDS011;5374;42.742;23.266;2022-08-01T11:58:20;2.90;;;2.60;;
10651;SDS011;5374;42.742;23.266;2022-08-01T12:01:11;2.63;;;2.37;;
10651;SDS011;5374;42.742;23.266;2022-08-01T12:04:00;2.93;;;2.60;;
10651;SDS011;5374;42.742;23.266;2022-08-01T12:06:47;5.43;;;2.53;;
10651;SDS011;5374;42.742;23.266;2022-08-01T12:09:34;3.17;;;2.70;;
10651;SDS011;5374;42.742;23.266;2022-08-01T12:12:21;3.57;;;2.87;;
10651;SDS011;5374;42.742;23.266;2022-08-01T12:15:09;2.70;;;2.50;;
10651;SDS011;5374;42.742;23.266;2022-08-01T12:17:59;4.53;;;3.10;;
10651;SDS011;5374;42.742;23.266;2022-08-01T12:20:47;3.00;;;2.70;;
10651;SDS011;5374;42.742;23.266;2022-08-01T12:23:34;3.20;;;2.70;;
10651;SDS011;5374;42.742;23.266;2022-08-01T12:26:21;2.97;;;2.67;;
10651;SDS011;5374;42.742;23.266;2022-08-01T12:29:08;2.90;;;2.70;;
10651;SDS011;5374;42.742;23.266;2022-08-01T12:31:55;3.60;;;3.00;;
10651;SDS011;5374;42.742;23.266;2022-08-01T12:34:44;2.97;;;2.67;;
10651;SDS011;5374;42.742;23.266;2022-08-01T12:37:32;2.80;;;2.60;;
10651;SDS011;5374;42.742;23.266;2022-08-01T12:40:22;4.73;;;2.97;;
10651;SDS011;5374;42.742;23.266;2022-08-01T12:43:15;4.00;;;2.73;;
10651;SDS011;5374;42.742;23.266;2022-08-01T12:46:04;3.97;;;2.77;;
10651;SDS011;5374;42.742;23.266;2022-08-01T12:48:52;2.70;;;2.50;;
10651;SDS011;5374;42.742;23.266;2022-08-01T12:51:41;3.00;;;2.70;;
10651;SDS011;5374;42.742;23.266;2022-08-01T12:54:28;2.63;;;2.43;;
10651;SDS011;5374;42.742;23.266;2022-08-01T12:57:21;3.43;;;2.40;;
10651;SDS011;5374;42.742;23.266;2022-08-01T13:00:11;2.70;;;2.50;;
10651;SDS011;5374;42.742;23.266;2022-08-01T13:03:04;2.50;;;2.30;;
10651;SDS011;5374;42.742;23.266;2022-08-01T13:05:53;2.23;;;2.13;;
10651;SDS011;5374;42.742;23.266;2022-08-01T13:08:43;2.43;;;2.23;;
10651;SDS011;5374;42.742;23.266;2022-08-01T13:11:31;2.70;;;2.50;;
10651;SDS011;5374;42.742;23.266;2022-08-01T13:14:26;2.97;;;2.67;;
10651;SDS011;5374;42.742;23.266;2022-08-01T13:17:29;2.77;;;2.57;;
10651;SDS011;5374;42.742;23.266;2022-08-01T13:20:26;2.63;;;2.40;;
10651;SDS011;5374;42.742;23.266;2022-08-01T13:23:16;2.40;;;2.20;;
10651;SDS011;5374;42.742;23.266;2022-08-01T13:26:05;2.97;;;2.47;;
10651;SDS011;5374;42.742;23.266;2022-08-01T13:29:03;2.50;;;2.30;;
10651;SDS011;5374;42.742;23.266;2022-08-01T13:31:50;2.60;;;2.40;;
10651;SDS011;5374;42.742;23.266;2022-08-01T13:34:37;2.60;;;2.40;;
10651;SDS011;5374;42.742;23.266;2022-08-01T13:37:25;2.50;;;2.17;;
10651;SDS011;5374;42.742;23.266;2022-08-01T13:40:12;2.20;;;1.90;;
10651;SDS011;5374;42.742;23.266;2022-08-01T13:43:11;3.07;;;2.40;;
10651;SDS011;5374;42.742;23.266;2022-08-01T13:45:58;3.57;;;2.60;;
10651;SDS011;5374;42.742;23.266;2022-08-01T13:48:48;3.40;;;2.33;;
10651;SDS011;5374;42.742;23.266;2022-08-01T13:51:35;2.90;;;2.40;;
10651;SDS011;5374;42.742;23.266;2022-08-01T13:54:23;2.90;;;2.30;;
10651;SDS011;5374;42.742;23.266;2022-08-01T13:57:10;5.10;;;2.67;;
10651;SDS011;5374;42.742;23.266;2022-08-01T14:00:01;2.37;;;2.17;;
10651;SDS011;5374;42.742;23.266;2022-08-01T14:02:48;2.57;;;2.37;;
10651;SDS011;5374;42.742;23.266;2022-08-01T14:05:35;2.60;;;2.40;;
10651;SDS011;5374;42.742;23.266;2022-08-01T14:08:23;2.50;;;2.03;;
10651;SDS011;5374;42.742;23.266;2022-08-01T14:11:10;4.80;;;2.43;;
10651;SDS011;5374;42.742;23.266;2022-08-01T14:13:58;2.30;;;2.10;;
10651;SDS011;5374;42.742;23.266;2022-08-01T14:16:46;2.30;;;2.10;;
10651;SDS011;5374;42.742;23.266;2022-08-01T14:19:33;2.33;;;2.03;;
10651;SDS011;5374;42.742;23.266;2022-08-01T14:22:20;3.00;;;2.40;;
10651;SDS011;5374;42.742;23.266;2022-08-01T14:25:08;3.60;;;2.83;;
10651;SDS011;5374;42.742;23.266;2022-08-01T14:27:55;2.53;;;2.10;;
10651;SDS011;5374;42.742;23.266;2022-08-01T14:30:43;2.90;;;1.90;;
10651;SDS011;5374;42.742;23.266;2022-08-01T14:33:32;3.10;;;2.27;;
10651;SDS011;5374;42.742;23.266;2022-08-01T14:36:19;2.30;;;2.10;;
10651;SDS011;5374;42.742;23.266;2022-08-01T14:39:06;2.40;;;2.20;;
10651;SDS011;5374;42.742;23.266;2022-08-01T14:41:53;3.47;;;2.30;;
10651;SDS011;5374;42.742;23.266;2022-08-01T14:44:40;2.20;;;2.00;;
10651;SDS011;5374;42.742;23.266;2022-08-01T14:47:27;4.20;;;2.63;;
10651;SDS011;5374;42.742;23.266;2022-08-01T14:50:16;2.80;;;2.07;;
10651;SDS011;5374;42.742;23.266;2022-08-01T14:53:03;3.30;;;2.50;;
10651;SDS011;5374;42.742;23.266;2022-08-01T14:55:50;2.83;;;2.30;;
10651;SDS011;5374;42.742;23.266;2022-08-01T14:58:37;2.53;;;2.33;;
10651;SDS011;5374;42.742;23.266;2022-08-01T15:01:26;2.50;;;2.30;;
10651;SDS011;5374;42.742;23.266;2022-08-01T15:04:13;2.87;;;2.00;;
10651;SDS011;5374;42.742;23.266;2022-08-01T15:07:02;2.53;;;2.33;;
10651;SDS011;5374;42.742;23.266;2022-08-01T15:09:49;3.53;;;2.37;;
10651;SDS011;5374;42.742;23.266;2022-08-01T15:12:36;3.07;;;2.50;;
10651;SDS011;5374;42.742;23.266;2022-08-01T15:15:26;2.30;;;2.10;;
10651;SDS011;5374;42.742;23.266;2022-08-01T15:18:13;4.13;;;2.40;;
10651;SDS011;5374;42.742;23.266;2022-08-01T15:21:01;3.70;;;2.27;;
10651;SDS011;5374;42.742;23.266;2022-08-01T15:23:50;2.80;;;2.20;;
10651;SDS011;5374;42.742;23.266;2022-08-01T15:26:37;3.30;;;1.97;;
10651;SDS011;5374;42.742;23.266;2022-08-01T15:29:24;3.13;;;2.00;;
10651;SDS011;5374;42.742;23.266;2022-08-01T15:32:12;3.10;;;2.10;;
10651;SDS011;5374;42.742;23.266;2022-08-01T15:34:59;3.90;;;1.90;;
10651;SDS011;5374;42.742;23.266;2022-08-01T15:37:46;2.30;;;2.10;;
10651;SDS011;5374;42.742;23.266;2022-08-01T15:40:35;2.37;;;2.10;;
10651;SDS011;5374;42.742;23.266;2022-08-01T15:43:22;3.27;;;2.07;;
10651;SDS011;5374;42.742;23.266;2022-08-01T15:46:10;2.77;;;1.70;;
10651;SDS011;5374;42.742;23.266;2022-08-01T15:48:57;1.77;;;1.67;;
10651;SDS011;5374;42.742;23.266;2022-08-01T15:51:48;2.07;;;1.73;;
10651;SDS011;5374;42.742;23.266;2022-08-01T15:54:36;2.53;;;1.90;;
10651;SDS011;5374;42.742;23.266;2022-08-01T15:57:27;3.50;;;1.70;;
10651;SDS011;5374;42.742;23.266;2022-08-01T16:00:14;2.27;;;1.83;;
10651;SDS011;5374;42.742;23.266;2022-08-01T16:03:01;2.93;;;2.00;;
10651;SDS011;5374;42.742;23.266;2022-08-01T16:05:48;2.30;;;2.10;;
10651;SDS011;5374;42.742;23.266;2022-08-01T16:08:35;2.30;;;1.87;;
10651;SDS011;5374;42.742;23.266;2022-08-01T16:11:22;2.70;;;2.10;;
10651;SDS011;5374;42.742;23.266;2022-08-01T16:14:13;4.33;;;1.90;;
10651;SDS011;5374;42.742;23.266;2022-08-01T16:17:00;1.80;;;1.70;;
10651;SDS011;5374;42.742;23.266;2022-08-01T16:19:47;2.53;;;2.33;;
10651;SDS011;5374;42.742;23.266;2022-08-01T16:22:35;1.73;;;1.63;;
10651;SDS011;5374;42.742;23.266;2022-08-01T16:25:22;2.60;;;1.60;;
10651;SDS011;5374;42.742;23.266;2022-08-01T16:28:09;2.23;;;2.03;;
10651;SDS011;5374;42.742;23.266;2022-08-01T16:30:58;2.53;;;1.83;;
10651;SDS011;5374;42.742;23.266;2022-08-01T16:33:45;2.00;;;1.80;;
10651;SDS011;5374;42.742;23.266;2022-08-01T16:36:32;2.77;;;1.80;;
10651;SDS011;5374;42.742;23.266;2022-08-01T16:39:20;1.93;;;1.73;;
10651;SDS011;5374;42.742;23.266;2022-08-01T16:42:07;2.10;;;1.80;;
10651;SDS011;5374;42.742;23.266;2022-08-01T16:44:54;1.53;;;1.40;;
10651;SDS011;5374;42.742;23.266;2022-08-01T16:47:45;4.67;;;1.80;;
10651;SDS011;5374;42.742;23.266;2022-08-01T16:50:32;1.93;;;1.70;;
10651;SDS011;5374;42.742;23.266;2022-08-01T16:53:20;2.30;;;1.70;;
10651;SDS011;5374;42.742;23.266;2022-08-01T16:56:08;2.33;;;1.60;;
10651;SDS011;5374;42.742;23.266;2022-08-01T16:58:55;2.77;;;1.70;;
10651;SDS011;5374;42.742;23.266;2022-08-01T17:01:43;2.00;;;1.47;;
10651;SDS011;5374;42.742;23.266;2022-08-01T17:04:31;2.10;;;1.93;;
10651;SDS011;5374;42.742;23.266;2022-08-01T17:07:18;1.80;;;1.70;;
10651;SDS011;5374;42.742;23.266;2022-08-01T17:10:06;4.20;;;1.70;;
10651;SDS011;5374;42.742;23.266;2022-08-01T17:12:54;2.80;;;2.00;;
10651;SDS011;5374;42.742;23.266;2022-08-01T17:15:41;2.00;;;1.80;;
10651;SDS011;5374;42.742;23.266;2022-08-01T17:18:28;2.53;;;1.93;;
10651;SDS011;5374;42.742;23.266;2022-08-01T17:21:17;2.50;;;2.17;;
10651;SDS011;5374;42.742;23.266;2022-08-01T17:24:04;5.87;;;1.90;;
10651;SDS011;5374;42.742;23.266;2022-08-01T17:26:52;6.17;;;2.80;;
10651;SDS011;5374;42.742;23.266;2022-08-01T17:29:39;3.90;;;1.93;;
10651;SDS011;5374;42.742;23.266;2022-08-01T17:32:26;2.60;;;2.10;;
10651;SDS011;5374;42.742;23.266;2022-08-01T17:35:13;1.87;;;1.77;;
10651;SDS011;5374;42.742;23.266;2022-08-01T17:38:02;2.90;;;1.90;;
10651;SDS011;5374;42.742;23.266;2022-08-01T17:40:50;3.13;;;1.97;;
10651;SDS011;5374;42.742;23.266;2022-08-01T17:43:37;2.30;;;1.90;;
10651;SDS011;5374;42.742;23.266;2022-08-01T17:46:24;2.23;;;2.03;;
10651;SDS011;5374;42.742;23.266;2022-08-01T17:49:11;3.20;;;2.50;;
10651;SDS011;5374;42.742;23.266;2022-08-01T17:51:58;2.00;;;1.80;;
10651;SDS011;5374;42.742;23.266;2022-08-01T17:54:47;1.83;;;1.67;;
10651;SDS011;5374;42.742;23.266;2022-08-01T17:57:34;2.00;;;1.70;;
10651;SDS011;5374;42.742;23.266;2022-08-01T18:00:21;2.13;;;1.93;;
10651;SDS011;5374;42.742;23.266;2022-08-01T18:03:09;3.20;;;2.10;;
10651;SDS011;5374;42.742;23.266;2022-08-01T18:05:57;11.57;;;4.93;;
10651;SDS011;5374;42.742;23.266;2022-08-01T18:08:44;9.60;;;4.40;;
10651;SDS011;5374;42.742;23.266;2022-08-01T18:11:33;4.27;;;2.80;;
10651;SDS011;5374;42.742;23.266;2022-08-01T18:14:20;2.97;;;2.67;;
10651;SDS011;5374;42.742;23.266;2022-08-01T18:17:08;3.53;;;2.40;;
10651;SDS011;5374;42.742;23.266;2022-08-01T18:19:55;3.07;;;2.20;;
10651;SDS011;5374;42.742;23.266;2022-08-01T18:22:42;2.70;;;2.50;;
10651;SDS011;5374;42.742;23.266;2022-08-01T18:25:30;3.67;;;2.40;;
10651;SDS011;5374;42.742;23.266;2022-08-01T18:28:19;4.23;;;2.27;;
10651;SDS011;5374;42.742;23.266;2022-08-01T18:31:08;2.30;;;2.10;;
10651;SDS011;5374;42.742;23.266;2022-08-01T18:33:57;3.00;;;1.87;;
10651;SDS011;5374;42.742;23.266;2022-08-01T18:36:45;4.93;;;2.00;;
10651;SDS011;5374;42.742;23.266;2022-08-01T18:39:32;3.93;;;2.80;;
10651;SDS011;5374;42.742;23.266;2022-08-01T18:42:19;2.80;;;2.50;;
10651;SDS011;5374;42.742;23.266;2022-08-01T18:45:08;3.87;;;2.23;;
10651;SDS011;5374;42.742;23.266;2022-08-01T18:47:57;2.80;;;2.20;;
10651;SDS011;5374;42.742;23.266;2022-08-01T18:50:44;2.67;;;1.97;;
10651;SDS011;5374;42.742;23.266;2022-08-01T18:53:31;3.07;;;2.10;;
10651;SDS011;5374;42.742;23.266;2022-08-01T18:56:18;2.43;;;2.23;;
10651;SDS011;5374;42.742;23.266;2022-08-01T18:59:06;2.80;;;2.40;;
10651;SDS011;5374;42.742;23.266;2022-08-01T19:01:54;3.47;;;1.97;;
10651;SDS011;5374;42.742;23.266;2022-08-01T19:04:41;2.30;;;2.10;;
10651;SDS011;5374;42.742;23.266;2022-08-01T19:07:29;2.50;;;2.00;;
10651;SDS011;5374;42.742;23.266;2022-08-01T19:10:16;2.40;;;2.20;;
10651;SDS011;5374;42.742;23.266;2022-08-01T19:13:03;3.73;;;2.20;;
10651;SDS011;5374;42.742;23.266;2022-08-01T19:15:52;4.70;;;2.10;;
10651;SDS011;5374;42.742;23.266;2022-08-01T19:18:40;5.53;;;2.40;;
10651;SDS011;5374;42.742;23.266;2022-08-01T19:21:28;3.50;;;2.20;;
10651;SDS011;5374;42.742;23.266;2022-08-01T19:24:15;4.07;;;2.77;;
10651;SDS011;5374;42.742;23.266;2022-08-01T19:27:03;3.57;;;3.00;;
10651;SDS011;5374;42.742;23.266;2022-08-01T19:29:53;4.60;;;2.67;;
10651;SDS011;5374;42.742;23.266;2022-08-01T19:32:41;3.77;;;2.47;;
10651;SDS011;5374;42.742;23.266;2022-08-01T19:35:30;2.97;;;2.57;;
10651;SDS011;5374;42.742;23.266;2022-08-01T19:38:18;3.80;;;2.80;;
10651;SDS011;5374;42.742;23.266;2022-08-01T19:41:06;4.30;;;2.37;;
10651;SDS011;5374;42.742;23.266;2022-08-01T19:43:53;4.63;;;2.67;;
10651;SDS011;5374;42.742;23.266;2022-08-01T19:46:41;4.67;;;2.90;;
10651;SDS011;5374;42.742;23.266;2022-08-01T19:49:29;3.10;;;2.80;;
10651;SDS011;5374;42.742;23.266;2022-08-01T19:52:18;4.27;;;2.57;;
10651;SDS011;5374;42.742;23.266;2022-08-01T19:55:10;5.90;;;2.77;;
10651;SDS011;5374;42.742;23.266;2022-08-01T19:57:59;4.30;;;3.37;;
10651;SDS011;5374;42.742;23.266;2022-08-01T20:00:46;5.70;;;3.10;;
10651;SDS011;5374;42.742;23.266;2022-08-01T20:03:35;3.57;;;2.80;;
10651;SDS011;5374;42.742;23.266;2022-08-01T20:06:26;4.00;;;3.10;;
10651;SDS011;5374;42.742;23.266;2022-08-01T20:09:16;3.10;;;2.70;;
10651;SDS011;5374;42.742;23.266;2022-08-01T20:12:03;5.03;;;3.17;;
10651;SDS011;5374;42.742;23.266;2022-08-01T20:14:52;3.77;;;2.60;;
10651;SDS011;5374;42.742;23.266;2022-08-01T20:17:39;4.10;;;2.60;;
10651;SDS011;5374;42.742;23.266;2022-08-01T20:20:26;3.13;;;2.40;;
10651;SDS011;5374;42.742;23.266;2022-08-01T20:23:14;3.97;;;2.67;;
10651;SDS011;5374;42.742;23.266;2022-08-01T20:26:04;2.67;;;2.33;;
10651;SDS011;5374;42.742;23.266;2022-08-01T20:28:52;3.50;;;2.43;;
10651;SDS011;5374;42.742;23.266;2022-08-01T20:31:41;2.87;;;2.60;;
10651;SDS011;5374;42.742;23.266;2022-08-01T20:34:35;3.70;;;3.17;;
10651;SDS011;5374;42.742;23.266;2022-08-01T20:37:23;3.13;;;2.23;;
10651;SDS011;5374;42.742;23.266;2022-08-01T20:40:11;2.83;;;2.37;;
10651;SDS011;5374;42.742;23.266;2022-08-01T20:43:00;3.73;;;2.53;;
10651;SDS011;5374;42.742;23.266;2022-08-01T20:45:49;2.47;;;2.10;;
10651;SDS011;5374;42.742;23.266;2022-08-01T20:48:36;2.53;;;2.33;;
10651;SDS011;5374;42.742;23.266;2022-08-01T20:51:25;2.40;;;2.20;;
10651;SDS011;5374;42.742;23.266;2022-08-01T20:54:13;2.93;;;2.00;;
10651;SDS011;5374;42.742;23.266;2022-08-01T20:57:02;2.53;;;2.10;;
10651;SDS011;5374;42.742;23.266;2022-08-01T20:59:53;1.80;;;1.70;;
10651;SDS011;5374;42.742;23.266;2022-08-01T21:02:48;2.87;;;2.10;;
10651;SDS011;5374;42.742;23.266;2022-08-01T21:05:42;2.10;;;1.90;;
10651;SDS011;5374;42.742;23.266;2022-08-01T21:08:33;2.70;;;2.20;;
10651;SDS011;5374;42.742;23.266;2022-08-01T21:11:26;3.23;;;2.00;;
10651;SDS011;5374;42.742;23.266;2022-08-01T21:14:26;4.20;;;2.00;;
10651;SDS011;5374;42.742;23.266;2022-08-01T21:17:31;3.50;;;2.07;;
10651;SDS011;5374;42.742;23.266;2022-08-01T21:20:28;2.37;;;2.00;;
10651;SDS011;5374;42.742;23.266;2022-08-01T21:23:19;2.43;;;1.90;;
10651;SDS011;5374;42.742;23.266;2022-08-01T21:26:10;2.43;;;2.13;;
10651;SDS011;5374;42.742;23.266;2022-08-01T21:28:59;2.37;;;2.10;;
10651;SDS011;5374;42.742;23.266;2022-08-01T21:31:50;3.30;;;2.40;;
10651;SDS011;5374;42.742;23.266;2022-08-01T21:34:54;3.37;;;2.60;;
10651;SDS011;5374;42.742;23.266;2022-08-01T21:37:42;2.40;;;2.20;;
10651;SDS011;5374;42.742;23.266;2022-08-01T21:40:31;2.67;;;2.27;;
10651;SDS011;5374;42.742;23.266;2022-08-01T21:43:19;2.63;;;2.30;;
10651;SDS011;5374;42.742;23.266;2022-08-01T21:46:07;3.90;;;2.30;;
10651;SDS011;5374;42.742;23.266;2022-08-01T21:48:55;2.80;;;2.10;;
10651;SDS011;5374;42.742;23.266;2022-08-01T21:51:46;2.33;;;2.13;;
10651;SDS011;5374;42.742;23.266;2022-08-01T21:54:43;2.53;;;2.17;;
10651;SDS011;5374;42.742;23.266;2022-08-01T21:57:45;2.23;;;1.93;;
10651;SDS011;5374;42.742;23.266;2022-08-01T22:00:41;4.23;;;2.30;;
10651;SDS011;5374;42.742;23.266;2022-08-01T22:03:40;2.73;;;2.30;;
10651;SDS011;5374;42.742;23.266;2022-08-01T22:06:31;2.40;;;2.20;;
10651;SDS011;5374;42.742;23.266;2022-08-01T22:09:22;2.50;;;2.30;;
10651;SDS011;5374;42.742;23.266;2022-08-01T22:12:09;2.43;;;2.17;;
10651;SDS011;5374;42.742;23.266;2022-08-01T22:14:57;3.77;;;2.23;;
10651;SDS011;5374;42.742;23.266;2022-08-01T22:17:49;2.40;;;2.20;;